首页
METAR-TAF:

METAR-TAF

机场 :

伦敦Biggin Hill, 英格兰

纬度: 51-19N, 经度: 000-02E, 海拔: 183米

当前天气观测

该预报发布于16分钟前的09:20 UTC
风速5节,风向
温度 12°C
湿度 94%
气压 1016 hPa
能见度10公里或以上
散云层高于700英尺
多云层高于1400英尺

METAR: EGKB 190920Z 36005KT 9999 SCT007 BKN014 12/11 Q1016

时间: 10:36 (09:36 UTC)

预报

该预报发布于1小时和37分钟前的07:59 UTC
预报有效从19日的 09点(UTC)到 19日的 18点(UTC)
风速6节,风向东北
能见度10公里或以上
多云层高于800英尺
成为
从 19日的 09点(UTC)到 19日的 12点(UTC)
多云层高于2000英尺
几率 30% :
短暂存在
从 19日的 14点(UTC)到 19日的 18点(UTC)
能見度: 8000
多云层高于800英尺
小阵雨

TAF: EGKB 190759Z 1909/1918 05006KT 9999 BKN008 BECMG 1909/1912 BKN020 PROB30 TEMPO 1914/1918 8000 -SHRA BKN008

超过4000个机场的气象观测和天气预报(METAR&TAF报告)。

可查询的气象台以黄色和红色小点在地图上表示。

将鼠标移到小点上方,可查看气象台名称。

然后点击查看天气观测和预报。

如需切换地图:点击带黑十字的绿色按钮放大地图;点击带横线的绿色按钮缩小地图;或者点击绿色箭头查看邻近地区的地图。


METAR-TAF: